Time;durP1;ratioP1;P1;durP2;ratioP2;P2;SDS_P1;SDS_P2;PMS_P1;PMS_P2;Temp;Humidity;BMP_temperature;BMP_pressure;BME280_temperature;BME280_humidity;BME280_pressure;Samples;Min_cycle;Max_cycle;Signal;HPM_P1;HPM_P2
2022/05/05 00:00:59;;;;;;;13.13;7.80;;;15.10;99.90;;;;;;5035393;28;20455;-77
2022/05/05 00:03:26;;;;;;;7.40;6.80;;;15.30;1.00;;;;;;5035267;28;20478;-78
2022/05/05 00:05:52;;;;;;;8.03;6.90;;;15.30;1.00;;;;;;5034518;28;20482;-77
2022/05/05 00:08:20;;;;;;;8.77;7.87;;;15.30;1.00;;;;;;5036946;28;21020;-77
2022/05/05 00:16:16;;;;;;;11.73;7.10;;;;;;;;;;5037815;28;20509;-77
2022/05/05 00:18:43;;;;;;;8.70;7.90;;;;;;;;;;5039731;28;20477;-76
2022/05/05 00:21:09;;;;;;;8.70;7.90;;;15.30;1.00;;;;;;5042818;28;20417;-76
2022/05/05 00:23:37;;;;;;;6.93;6.27;;;15.20;1.00;;;;;;5041226;28;20456;-77
2022/05/05 00:26:04;;;;;;;8.80;7.30;;;15.10;1.00;;;;;;5034738;28;20500;-76
2022/05/05 00:28:30;;;;;;;7.20;6.70;;;15.00;1.00;;;;;;5034054;28;20462;-78
2022/05/05 00:30:57;;;;;;;8.30;7.50;;;15.10;1.00;;;;;;5035509;28;20442;-77
2022/05/05 00:33:23;;;;;;;8.77;8.00;;;15.10;1.00;;;;;;5035788;28;20482;-77
2022/05/05 00:35:50;;;;;;;7.97;7.17;;;14.80;1.00;;;;;;5036115;28;20478;-78
2022/05/05 00:38:17;;;;;;;7.23;6.60;;;15.10;1.00;;;;;;5034697;28;21052;-77
2022/05/05 00:40:44;;;;;;;8.10;7.30;;;15.00;1.00;;;;;;5035079;28;20450;-77
2022/05/05 00:43:11;;;;;;;8.23;7.07;;;15.10;1.00;;;;;;5034187;28;20486;-77
2022/05/05 00:45:38;;;;;;;7.07;6.57;;;15.00;1.00;;;;;;5034318;28;20504;-77
2022/05/05 00:48:07;;;;;;;5.97;5.57;;;15.10;99.90;;;;;;5034397;28;20485;-77
2022/05/05 00:50:34;;;;;;;7.27;6.63;;;14.90;1.00;;;;;;5033729;28;20454;-77
2022/05/05 00:53:01;;;;;;;6.83;6.33;;;15.00;1.00;;;;;;5033535;28;20483;-76
2022/05/05 00:55:28;;;;;;;7.70;7.10;;;14.90;1.00;;;;;;5033590;28;20444;-77
2022/05/05 00:57:56;;;;;;;10.20;7.10;;;14.90;99.90;;;;;;5033201;28;20577;-77
2022/05/05 01:00:23;;;;;;;7.93;7.23;;;14.90;1.00;;;;;;5033882;28;20458;-77
2022/05/05 01:02:50;;;;;;;8.07;7.37;;;14.80;70.20;;;;;;5034496;28;20538;-77
2022/05/05 01:05:18;;;;;;;8.67;7.77;;;14.80;99.90;;;;;;5034363;28;20458;-77
2022/05/05 01:07:45;;;;;;;8.30;7.60;;;14.70;99.90;;;;;;5039863;28;20458;-77
2022/05/05 01:10:11;;;;;;;7.83;7.10;;;14.80;99.90;;;;;;5034372;28;20573;-77
2022/05/05 01:12:38;;;;;;;7.93;6.83;;;14.80;99.90;;;;;;5034601;28;20481;-77
2022/05/05 01:15:08;;;;;;;8.20;7.50;;;14.70;99.90;;;;;;5034870;28;20877;-77
2022/05/05 01:17:35;;;;;;;8.20;7.40;;;14.80;99.90;;;;;;5034155;28;20512;-77
2022/05/05 01:20:10;;;;;;;9.50;7.40;;;14.70;99.90;;;;;;5033084;28;20573;-77
2022/05/05 01:22:38;;;;;;;9.30;7.80;;;14.80;99.90;;;;;;5033407;28;20440;-78
2022/05/05 01:30:33;;;;;;;8.60;7.37;;;15.00;99.90;;;;;;5034831;28;20834;-76
2022/05/05 01:33:00;;;;;;;10.37;8.90;;;14.90;1.00;;;;;;5045078;28;20450;-75
2022/05/05 01:35:26;;;;;;;9.73;8.83;;;15.00;84.70;;;;;;5039763;28;20486;-76
2022/05/05 01:37:54;;;;;;;9.77;8.83;;;14.10;1.00;;;;;;5038116;28;20524;-76
2022/05/05 01:40:21;;;;;;;11.60;10.20;;;14.80;1.00;;;;;;5038589;28;20488;-77
2022/05/05 01:42:47;;;;;;;10.83;9.83;;;14.50;1.00;;;;;;5034684;28;20479;-77
2022/05/05 01:45:14;;;;;;;9.00;8.10;;;14.40;1.00;;;;;;5034556;28;20486;-77
2022/05/05 01:47:40;;;;;;;9.73;8.80;;;14.50;1.00;;;;;;5035224;28;20468;-77
2022/05/05 01:50:08;;;;;;;9.50;8.63;;;14.40;99.90;;;;;;5034159;28;20890;-78
2022/05/05 01:52:35;;;;;;;8.43;7.57;;;14.40;99.90;;;;;;5033510;28;20481;-77
2022/05/05 01:55:04;;;;;;;8.30;7.40;;;14.40;99.90;;;;;;5034060;28;20540;-77
2022/05/05 01:57:30;;;;;;;12.77;8.13;;;13.90;99.90;;;;;;5038829;28;20848;-78
2022/05/05 01:59:57;;;;;;;10.20;8.33;;;14.00;91.30;;;;;;5036604;28;20585;-77
2022/05/05 02:02:23;;;;;;;7.57;6.97;;;14.00;99.90;;;;;;5036901;28;20617;-77
2022/05/05 02:04:50;;;;;;;8.07;7.40;;;14.10;99.90;;;;;;5038297;28;20810;-77
2022/05/05 02:07:17;;;;;;;12.00;7.03;;;14.20;99.90;;;;;;5038336;28;20492;-77
2022/05/05 02:09:43;;;;;;;6.80;6.30;;;14.00;99.90;;;;;;5060383;22;20490;-80
2022/05/05 02:12:11;;;;;;;7.73;6.80;;;14.00;99.90;;;;;;5052116;28;20812;-81
2022/05/05 02:14:38;;;;;;;23.20;8.00;;;14.10;99.90;;;;;;5050647;28;20479;-81
2022/05/05 02:17:05;;;;;;;10.20;7.70;;;13.80;80.00;;;;;;5050904;28;20511;-82
2022/05/05 02:19:32;;;;;;;6.67;6.03;;;13.80;99.90;;;;;;5050869;28;20473;-81
2022/05/05 02:21:59;;;;;;;11.30;7.77;;;13.70;99.90;;;;;;5054593;28;20445;-80
2022/05/05 02:24:26;;;;;;;15.33;10.27;;;13.70;99.90;;;;;;5055863;28;20474;-80
2022/05/05 02:26:53;;;;;;;9.50;7.17;;;;;;;;;;5050628;28;20958;-82
2022/05/05 02:29:21;;;;;;;9.20;6.77;;;13.80;99.90;;;;;;5050227;28;20486;-82
2022/05/05 02:31:48;;;;;;;36.90;25.50;;;13.70;99.90;;;;;;5050135;28;20456;-81
2022/05/05 02:34:14;;;;;;;9.80;7.63;;;13.80;99.90;;;;;;5050662;28;20862;-79
2022/05/05 02:39:25;;;;;;;29.30;18.53;;;13.80;99.90;;;;;;5056459;28;20452;-79
2022/05/05 02:41:52;;;;;;;8.23;7.40;;;13.70;99.90;;;;;;5052721;28;20450;-79
2022/05/05 02:44:19;;;;;;;11.63;7.57;;;13.70;1.00;;;;;;5050896;28;20454;-81
2022/05/05 02:46:47;;;;;;;10.20;6.67;;;13.60;1.00;;;;;;5054810;28;20447;-80
2022/05/05 02:49:14;;;;;;;12.97;9.20;;;;;;;;;;5052291;28;20563;-81
2022/05/05 02:51:41;;;;;;;10.90;6.83;;;13.30;1.00;;;;;;5053476;28;20495;-81
2022/05/05 02:56:52;;;;;;;7.50;6.50;;;13.40;1.00;;;;;;5050545;28;20432;-80
2022/05/05 02:59:18;;;;;;;8.03;7.23;;;13.30;1.00;;;;;;5051435;28;20692;-79
2022/05/05 03:01:46;;;;;;;9.30;7.30;;;13.50;1.00;;;;;;5052025;28;20471;-80
2022/05/05 03:04:13;;;;;;;11.23;8.20;;;12.70;1.00;;;;;;5052310;28;20487;-81
2022/05/05 03:06:39;;;;;;;9.63;7.07;;;13.30;1.00;;;;;;5050383;28;20447;-81
2022/05/05 03:09:06;;;;;;;8.63;7.70;;;13.30;1.00;;;;;;5047762;28;20479;-80
2022/05/05 03:11:33;;;;;;;9.37;7.53;;;13.40;1.00;;;;;;5046921;28;20435;-79
2022/05/05 03:13:59;;;;;;;10.77;7.33;;;13.40;1.00;;;;;;5048450;28;20443;-79
2022/05/05 03:16:26;;;;;;;10.63;7.47;;;13.10;1.00;;;;;;5051631;28;20464;-80
2022/05/05 03:18:54;;;;;;;8.50;7.60;;;13.20;1.00;;;;;;5051213;28;20490;-82
2022/05/05 03:21:21;;;;;;;8.47;7.67;;;;;;;;;;5052928;28;20446;-80
2022/05/05 03:23:48;;;;;;;10.40;7.50;;;12.90;23.70;;;;;;5052328;28;20439;-82
2022/05/05 03:26:14;;;;;;;10.27;9.37;;;12.80;94.70;;;;;;5050108;28;20473;-80
2022/05/05 03:28:41;;;;;;;13.93;7.90;;;12.60;99.90;;;;;;5049461;28;21089;-80
2022/05/05 03:31:08;;;;;;;12.80;9.10;;;12.50;99.90;;;;;;5043659;28;20445;-81
2022/05/05 03:33:36;;;;;;;12.18;9.35;;;12.30;99.90;;;;;;5046689;28;20916;-80
2022/05/05 03:36:05;;;;;;;13.53;10.40;;;12.30;99.90;;;;;;5047292;28;20210;-80
2022/05/05 03:38:31;;;;;;;14.27;9.87;;;12.10;99.90;;;;;;5046740;28;20483;-78
2022/05/05 03:40:58;;;;;;;12.10;9.60;;;12.20;99.90;;;;;;5047542;28;20446;-80
2022/05/05 03:43:25;;;;;;;13.50;9.43;;;12.20;99.90;;;;;;5045797;28;20481;-79
2022/05/05 03:45:51;;;;;;;10.33;9.00;;;12.10;99.90;;;;;;5045416;28;20421;-81
2022/05/05 03:48:18;;;;;;;14.23;10.37;;;12.00;99.90;;;;;;5045292;28;20447;-80
2022/05/05 03:50:44;;;;;;;14.10;10.83;;;12.10;99.90;;;;;;5045179;28;20961;-79
2022/05/05 03:53:12;;;;;;;12.13;9.80;;;12.10;99.90;;;;;;5046333;28;20447;-79
2022/05/05 03:55:39;;;;;;;15.57;10.30;;;11.60;99.90;;;;;;5045336;28;20448;-78
2022/05/05 03:58:06;;;;;;;12.33;10.20;;;12.00;99.90;;;;;;5044949;28;20254;-81
2022/05/05 04:00:32;;;;;;;13.00;11.80;;;12.00;99.90;;;;;;5047422;28;20446;-81
2022/05/05 04:05:43;;;;;;;11.90;10.20;;;12.20;99.90;;;;;;5044961;28;20422;-79
2022/05/05 04:08:11;;;;;;;13.83;9.70;;;;;;;;;;5044999;28;20454;-79
2022/05/05 04:10:41;;;;;;;16.27;11.33;;;12.20;99.90;;;;;;5047134;28;20461;-79
2022/05/05 04:13:08;;;;;;;12.40;10.00;;;12.10;99.90;;;;;;5042742;28;20442;-81
2022/05/05 04:15:35;;;;;;;12.73;10.40;;;12.10;99.90;;;;;;5044207;28;20443;-81
2022/05/05 04:18:05;;;;;;;16.27;12.13;;;12.10;99.90;;;;;;5043738;28;20556;-79
2022/05/05 04:20:33;;;;;;;13.70;11.57;;;12.10;99.90;;;;;;5044330;28;20508;-79
2022/05/05 04:22:59;;;;;;;11.40;10.30;;;12.10;99.90;;;;;;5044091;28;20508;-80
2022/05/05 04:25:26;;;;;;;14.33;12.00;;;12.00;99.90;;;;;;5043875;28;20458;-79
2022/05/05 04:27:54;;;;;;;13.17;10.47;;;12.00;99.90;;;;;;5044887;28;20458;-78
2022/05/05 04:30:21;;;;;;;12.93;10.50;;;12.00;99.90;;;;;;5045135;28;20891;-80
2022/05/05 04:32:48;;;;;;;13.90;11.33;;;12.10;99.90;;;;;;5045114;28;20451;-78
2022/05/05 04:35:16;;;;;;;14.33;10.63;;;12.10;99.90;;;;;;5045776;28;20459;-78
2022/05/05 04:37:42;;;;;;;12.77;10.60;;;12.10;99.90;;;;;;5044030;28;20442;-78
2022/05/05 04:40:10;;;;;;;11.60;9.85;;;11.80;99.90;;;;;;5046060;28;20441;-80
2022/05/05 04:42:37;;;;;;;13.03;11.40;;;12.00;99.90;;;;;;5043699;28;20207;-82
2022/05/05 04:45:06;;;;;;;12.55;10.80;;;12.10;99.90;;;;;;5039400;28;20924;-80
2022/05/05 04:47:33;;;;;;;14.80;11.77;;;12.10;99.90;;;;;;5043107;28;20472;-79
2022/05/05 04:50:00;;;;;;;11.50;9.80;;;12.10;99.90;;;;;;5042970;28;20469;-80
2022/05/05 04:52:27;;;;;;;13.03;10.20;;;12.10;99.90;;;;;;5043431;28;20204;-80
2022/05/05 04:54:54;;;;;;;13.23;11.20;;;12.10;99.90;;;;;;5045066;28;20454;-81
2022/05/05 04:57:21;;;;;;;13.40;12.10;;;;;;;;;;5047955;28;20450;-82
2022/05/05 04:59:48;;;;;;;10.70;9.70;;;12.40;99.90;;;;;;5045521;28;20486;-80
2022/05/05 05:02:16;;;;;;;10.33;9.33;;;12.40;99.90;;;;;;5044578;28;20450;-80
2022/05/05 05:04:43;;;;;;;10.83;8.93;;;12.30;99.90;;;;;;5043565;28;20517;-81
2022/05/05 05:07:10;;;;;;;12.00;9.57;;;12.60;99.90;;;;;;5043551;28;20443;-81
2022/05/05 05:09:36;;;;;;;11.43;9.80;;;12.40;99.90;;;;;;5043031;28;20983;-81
2022/05/05 05:12:03;;;;;;;16.43;10.80;;;12.20;99.90;;;;;;5043362;28;20204;-80
2022/05/05 05:14:30;;;;;;;13.53;10.40;;;12.30;99.90;;;;;;5042232;28;20430;-80
2022/05/05 05:16:57;;;;;;;12.10;9.35;;;12.30;99.90;;;;;;5042264;28;20464;-80
2022/05/05 05:19:25;;;;;;;12.80;9.43;;;12.40;99.90;;;;;;5044653;28;20232;-80
2022/05/05 05:21:52;;;;;;;10.47;9.20;;;12.50;99.90;;;;;;5043059;28;20447;-80
2022/05/05 05:24:18;;;;;;;15.73;10.13;;;12.60;99.90;;;;;;5043436;28;20465;-78
2022/05/05 05:26:45;;;;;;;10.50;9.40;;;12.50;99.90;;;;;;5044656;28;20473;-78
2022/05/05 05:29:12;;;;;;;13.13;9.70;;;12.60;99.90;;;;;;5042906;28;20883;-77
2022/05/05 05:31:39;;;;;;;11.50;9.23;;;12.70;99.90;;;;;;5043164;28;20452;-78
2022/05/05 05:34:05;;;;;;;10.87;8.93;;;12.60;99.90;;;;;;5042799;28;20513;-78
2022/05/05 05:36:33;;;;;;;12.27;8.40;;;12.70;99.90;;;;;;5043538;28;20450;-80
2022/05/05 05:39:00;;;;;;;115.60;73.70;;;12.80;99.90;;;;;;5043749;28;20486;-78
2022/05/05 05:41:30;;;;;;;33.60;22.97;;;12.80;99.90;;;;;;5047474;28;20442;-81
2022/05/05 05:43:57;;;;;;;33.80;23.07;;;12.80;99.90;;;;;;5051248;28;20449;-80
2022/05/05 05:46:28;;;;;;;15.83;10.53;;;12.90;99.90;;;;;;5048914;28;20442;-82
2022/05/05 05:51:59;;;;;;;39.53;26.83;;;12.70;99.90;;;;;;5049445;28;20451;-80
2022/05/05 05:54:27;;;;;;;13.67;9.37;;;;;;;;;;5049265;28;20494;-80
2022/05/05 05:57:16;;;;;;;10.53;9.47;;;12.60;99.90;;;;;;5050831;28;20451;-81
2022/05/05 06:00:24;;;;;;;11.73;10.50;;;12.60;99.90;;;;;;5048124;28;20486;-81
2022/05/05 06:05:36;;;;;;;13.63;11.30;;;;;;;;;;5046320;28;20882;-78
2022/05/05 06:08:05;;;;;;;9.73;8.77;;;12.90;99.90;;;;;;5045555;28;20414;-77
2022/05/05 06:10:32;;;;;;;11.80;10.57;;;13.00;99.90;;;;;;5046415;28;20462;-78
2022/05/05 06:12:58;;;;;;;16.47;10.00;;;13.10;99.90;;;;;;5043367;28;20446;-78
2022/05/05 06:15:26;;;;;;;11.50;9.93;;;13.00;99.90;;;;;;5039776;28;20447;-80
2022/05/05 06:17:54;;;;;;;12.37;10.57;;;13.00;90.50;;;;;;5042825;28;20450;-80
2022/05/05 06:20:21;;;;;;;11.77;9.10;;;12.60;99.90;;;;;;5042422;28;20557;-80
2022/05/05 06:22:50;;;;;;;12.33;10.43;;;12.80;99.90;;;;;;5042096;28;20948;-81
2022/05/05 06:25:20;;;;;;;12.50;9.47;;;13.00;99.90;;;;;;5041939;28;20428;-79
2022/05/05 06:27:47;;;;;;;11.93;10.00;;;13.00;99.90;;;;;;5042721;28;20435;-80
2022/05/05 06:30:14;;;;;;;14.70;10.10;;;13.50;99.90;;;;;;5042229;28;20459;-79
2022/05/05 06:32:41;;;;;;;14.60;9.33;;;13.20;95.80;;;;;;5043319;28;20435;-81
2022/05/05 06:35:09;;;;;;;11.60;9.30;;;13.10;99.90;;;;;;5043780;28;20442;-79
2022/05/05 06:37:39;;;;;;;13.83;9.30;;;13.20;35.90;;;;;;5042706;28;20415;-81
2022/05/05 06:40:07;;;;;;;15.60;10.10;;;12.10;74.50;;;;;;5042472;28;20576;-79
2022/05/05 06:42:35;;;;;;;15.63;9.87;;;13.10;49.70;;;;;;5045183;28;20442;-80
2022/05/05 06:45:13;;;;;;;12.87;9.43;;;12.90;34.70;;;;;;5046674;28;20442;-80
2022/05/05 06:47:40;;;;;;;12.30;10.43;;;13.40;23.30;;;;;;5046366;28;20517;-80
2022/05/05 06:50:07;;;;;;;10.50;8.80;;;14.90;1.00;;;;;;5046064;28;20474;-79
2022/05/05 06:52:34;;;;;;;12.20;9.73;;;13.90;1.00;;;;;;5045809;28;20460;-81
2022/05/05 06:55:00;;;;;;;11.20;8.73;;;13.60;1.00;;;;;;5045113;28;20449;-79
2022/05/05 06:57:27;;;;;;;11.13;9.73;;;13.50;1.00;;;;;;5046708;28;20948;-79
2022/05/05 06:59:55;;;;;;;15.80;9.67;;;13.40;1.00;;;;;;5047499;28;20495;-80
2022/05/05 07:02:22;;;;;;;12.50;9.60;;;14.00;1.00;;;;;;5046941;28;20450;-79
2022/05/05 07:07:38;;;;;;;15.10;10.33;;;13.80;1.00;;;;;;5045917;28;20459;-79
2022/05/05 07:12:50;;;;;;;26.03;11.90;;;13.60;1.00;;;;;;5046130;28;20448;-79
2022/05/05 07:15:18;;;;;;;10.50;9.20;;;13.60;1.00;;;;;;5045265;28;20461;-79
2022/05/05 07:17:46;;;;;;;13.90;9.47;;;13.80;1.00;;;;;;5048783;28;20516;-82
2022/05/05 07:20:12;;;;;;;12.30;10.17;;;14.00;1.00;;;;;;5048388;28;20514;-81
2022/05/05 07:22:40;;;;;;;13.63;10.30;;;14.10;1.00;;;;;;5047809;28;20553;-80
2022/05/05 07:25:08;;;;;;;12.57;10.47;;;14.30;1.00;;;;;;5047602;28;20448;-79
2022/05/05 07:27:34;;;;;;;14.17;10.83;;;14.20;1.00;;;;;;5045952;28;20501;-79
2022/05/05 07:30:01;;;;;;;15.57;10.50;;;13.80;1.00;;;;;;5046297;28;20476;-79
2022/05/05 07:32:29;;;;;;;13.53;10.83;;;14.30;1.00;;;;;;5045760;28;20476;-80
2022/05/05 07:34:56;;;;;;;14.20;9.67;;;13.60;1.00;;;;;;5051074;28;20445;-81
2022/05/05 07:37:22;;;;;;;13.17;10.23;;;13.80;1.00;;;;;;5048430;28;20450;-79
2022/05/05 07:39:49;;;;;;;16.40;10.63;;;14.10;1.00;;;;;;5046259;28;20574;-79
2022/05/05 07:42:16;;;;;;;12.53;10.80;;;14.30;1.00;;;;;;5048755;28;20453;-78
2022/05/05 07:44:42;;;;;;;13.97;10.63;;;14.30;1.00;;;;;;5046620;28;20461;-80
2022/05/05 07:47:09;;;;;;;10.30;9.30;;;14.40;1.00;;;;;;5045879;28;20457;-79
2022/05/05 07:49:39;;;;;;;13.93;10.30;;;14.60;1.00;;;;;;5047924;28;20535;-79
2022/05/05 07:52:06;;;;;;;14.40;10.00;;;;;;;;;;5046464;28;20445;-79
2022/05/05 07:54:51;;;;;;;14.77;12.70;;;14.30;1.00;;;;;;5046914;28;21045;-81
2022/05/05 08:00:17;;;;;;;15.67;11.10;;;14.10;1.00;;;;;;5044153;28;20507;-80
2022/05/05 08:02:44;;;;;;;10.97;9.90;;;;;;;;;;5045832;28;20456;-79
2022/05/05 08:05:15;;;;;;;12.90;11.00;;;14.20;1.00;;;;;;5045323;28;20441;-80
2022/05/05 08:07:43;;;;;;;11.60;10.50;;;;;;;;;;5045614;28;20457;-80
2022/05/05 08:10:10;;;;;;;16.63;10.20;;;14.10;1.00;;;;;;5075110;22;20505;-84
2022/05/05 08:12:38;;;;;;;16.97;10.60;;;14.80;99.90;;;;;;5067592;28;20967;-83
2022/05/05 08:15:06;;;;;;;15.93;10.20;;;14.50;1.00;;;;;;5067509;28;20482;-83
2022/05/05 08:17:33;;;;;;;13.23;10.00;;;14.70;99.90;;;;;;5066697;28;20452;-83
2022/05/05 08:20:01;;;;;;;21.57;15.70;;;14.80;99.90;;;;;;5076918;28;20484;-83
2022/05/05 08:22:29;;;;;;;11.90;10.40;;;14.80;99.90;;;;;;5079509;28;20527;-82
2022/05/05 08:30:24;;;;;;;14.77;10.73;;;15.00;99.90;;;;;;5075797;28;20440;-84
2022/05/05 08:32:50;;;;;;;16.73;10.63;;;15.40;99.90;;;;;;5076405;28;20803;-84
2022/05/05 08:35:17;;;;;;;10.87;9.77;;;15.30;1.00;;;;;;5075694;28;20471;-84
2022/05/05 08:37:45;;;;;;;15.10;10.20;;;15.50;99.90;;;;;;5071159;28;20918;-83
2022/05/05 08:40:13;;;;;;;13.27;10.93;;;15.10;1.00;;;;;;5067354;28;20504;-83
2022/05/05 08:42:39;;;;;;;11.23;9.93;;;15.40;1.00;;;;;;5067371;28;20967;-83
2022/05/05 08:45:07;;;;;;;14.90;9.47;;;15.50;99.90;;;;;;5067179;28;20460;-84
2022/05/05 08:47:34;;;;;;;14.23;10.40;;;15.70;1.00;;;;;;5067702;28;20472;-83
2022/05/05 08:50:01;;;;;;;10.13;9.13;;;15.70;61.60;;;;;;5067615;28;20463;-83
2022/05/05 08:52:37;;;;;;;11.90;10.50;;;15.70;1.00;;;;;;5066092;28;20625;-84
2022/05/05 08:55:05;;;;;;;10.33;9.33;;;15.60;1.00;;;;;;5066423;28;20457;-84
2022/05/05 08:57:32;;;;;;;11.07;9.70;;;15.50;44.00;;;;;;5065419;28;20459;-84
2022/05/05 08:59:58;;;;;;;14.13;9.10;;;15.60;1.00;;;;;;5065106;28;20489;-84
2022/05/05 09:02:25;;;;;;;12.40;9.10;;;15.50;1.00;;;;;;5065779;28;20459;-85
2022/05/05 09:04:52;;;;;;;8.33;7.50;;;;;;;;;;5064700;28;20867;-84
2022/05/05 09:07:19;;;;;;;9.37;8.40;;;15.60;1.00;;;;;;5066552;28;20459;-84
2022/05/05 09:09:50;;;;;;;12.23;8.37;;;15.70;1.00;;;;;;5069021;28;20895;-84
2022/05/05 09:12:19;;;;;;;10.40;7.90;;;15.70;1.00;;;;;;5067905;28;20443;-84
2022/05/05 09:14:47;;;;;;;11.13;7.30;;;15.80;99.90;;;;;;5065595;28;20533;-83
2022/05/05 09:17:15;;;;;;;12.27;7.77;;;15.70;99.90;;;;;;5065392;28;20475;-83
2022/05/05 09:19:44;;;;;;;8.20;7.40;;;15.80;1.00;;;;;;5065004;28;20489;-84
2022/05/05 09:22:11;;;;;;;9.60;7.43;;;15.70;1.00;;;;;;5064279;28;20457;-84
2022/05/05 09:24:43;;;;;;;10.70;8.80;;;15.70;99.90;;;;;;5064094;28;20479;-83
2022/05/05 09:27:19;;;;;;;11.33;6.87;;;15.80;1.00;;;;;;5066795;28;20441;-82
2022/05/05 09:30:11;;;;;;;10.20;7.90;;;16.00;93.90;;;;;;5078178;28;20489;-81
2022/05/05 09:32:40;;;;;;;8.00;7.13;;;16.20;99.90;;;;;;5078170;28;20437;-82
2022/05/05 09:35:11;;;;;;;10.10;8.77;;;16.20;1.00;;;;;;5078289;28;20464;-82
2022/05/05 09:37:38;;;;;;;10.90;8.30;;;16.20;99.90;;;;;;5077770;28;21290;-82
2022/05/05 09:40:10;;;;;;;8.70;7.63;;;16.20;1.00;;;;;;5077583;28;20462;-83
2022/05/05 09:42:40;;;;;;;11.10;8.00;;;16.30;99.90;;;;;;5065458;28;20440;-84
2022/05/05 09:45:19;;;;;;;8.07;6.67;;;16.50;28.00;;;;;;5065726;28;20430;-83
2022/05/05 09:47:47;;;;;;;10.63;6.87;;;17.10;1.00;;;;;;5061991;28;20404;-83
2022/05/05 09:50:14;;;;;;;10.63;8.47;;;16.70;99.90;;;;;;5061313;28;20469;-83
2022/05/05 09:58:17;;;;;;;7.00;6.30;;;16.80;99.90;;;;;;5062618;28;20405;-83
2022/05/05 10:00:48;;;;;;;10.63;7.20;;;16.80;99.90;;;;;;5064048;28;20477;-83
2022/05/05 10:06:07;;;;;;;8.57;7.20;;;16.60;99.90;;;;;;5063575;28;20410;-84
2022/05/05 10:08:38;;;;;;;9.60;7.47;;;17.20;1.00;;;;;;5067139;28;20446;-83
2022/05/05 10:11:06;;;;;;;10.43;7.30;;;16.80;99.90;;;;;;5062054;28;20437;-83
2022/05/05 10:13:36;;;;;;;7.10;6.47;;;16.80;99.90;;;;;;5062603;28;20949;-83
2022/05/05 10:16:04;;;;;;;9.43;7.33;;;16.70;99.90;;;;;;5063572;28;20454;-84
2022/05/05 10:18:33;;;;;;;9.33;7.57;;;16.90;23.00;;;;;;5067210;28;20441;-83
2022/05/05 10:21:00;;;;;;;7.53;6.57;;;16.90;21.20;;;;;;5067874;28;20484;-83
2022/05/05 10:23:33;;;;;;;11.47;7.60;;;17.00;21.90;;;;;;5070298;28;20450;-84
2022/05/05 10:26:01;;;;;;;16.13;7.30;;;16.80;1.00;;;;;;5077224;28;20426;-83
2022/05/05 10:28:40;;;;;;;9.80;6.60;;;17.00;99.90;;;;;;5072235;28;20442;-82
2022/05/05 10:31:14;;;;;;;8.53;7.17;;;17.00;1.00;;;;;;5078193;28;20432;-82
2022/05/05 10:34:00;;;;;;;7.03;6.33;;;16.50;99.90;;;;;;5080814;28;20421;-81
2022/05/05 10:36:28;;;;;;;8.93;7.33;;;16.90;1.00;;;;;;5081282;28;20465;-82
2022/05/05 10:38:55;;;;;;;9.00;6.73;;;16.90;1.00;;;;;;5075012;28;20469;-82
2022/05/05 10:41:39;;;;;;;9.73;7.00;;;16.60;1.00;;;;;;5069765;28;20810;-82
2022/05/05 10:44:25;;;;;;;15.53;7.60;;;16.70;45.20;;;;;;5068869;28;20455;-83
2022/05/05 10:46:56;;;;;;;13.10;8.20;;;16.70;1.00;;;;;;5068367;28;20430;-83
2022/05/05 10:49:46;;;;;;;8.97;6.57;;;16.80;99.90;;;;;;5068740;28;20465;-83
2022/05/05 10:52:31;;;;;;;8.60;7.80;;;17.20;42.10;;;;;;5070155;28;20545;-82
2022/05/05 10:54:58;;;;;;;10.30;7.90;;;;;;;;;;5068176;28;20445;-84
2022/05/05 10:57:42;;;;;;;7.40;6.80;;;17.40;1.00;;;;;;5067402;28;20442;-84
2022/05/05 11:00:12;;;;;;;10.00;7.03;;;17.10;1.00;;;;;;5065055;28;20485;-84
2022/05/05 11:02:40;;;;;;;8.33;6.40;;;17.40;1.00;;;;;;5066222;28;20461;-83
2022/05/05 11:05:26;;;;;;;9.27;8.30;;;17.20;1.00;;;;;;5077840;28;20441;-83
2022/05/05 11:07:53;;;;;;;8.37;7.60;;;;;;;;;;5077717;28;20453;-83
2022/05/05 11:10:45;;;;;;;10.03;7.80;;;17.50;1.00;;;;;;5075542;28;20477;-83
2022/05/05 11:13:35;;;;;;;12.60;7.17;;;17.20;1.00;;;;;;5076676;28;20446;-83
2022/05/05 11:22:08;;;;;;;8.97;6.60;;;17.40;1.00;;;;;;5073958;28;20406;-83
2022/05/05 11:24:35;;;;;;;9.97;7.30;;;;;;;;;;5064563;28;20474;-84
2022/05/05 11:27:02;;;;;;;11.00;6.93;;;17.50;1.00;;;;;;5061882;28;20472;-84
2022/05/05 11:29:30;;;;;;;9.40;8.47;;;16.90;1.00;;;;;;5064505;28;20515;-83
2022/05/05 11:31:59;;;;;;;14.10;7.90;;;17.40;1.00;;;;;;5066181;28;20540;-83
2022/05/05 11:34:33;;;;;;;7.77;6.93;;;17.30;1.00;;;;;;5062232;28;20442;-84
2022/05/05 11:37:00;;;;;;;9.53;8.37;;;;;;;;;;5064764;28;20525;-83
2022/05/05 11:39:27;;;;;;;10.10;7.30;;;17.90;1.00;;;;;;5066294;28;20529;-83
2022/05/05 11:42:01;;;;;;;7.93;6.50;;;17.60;1.00;;;;;;5067833;28;20438;-84
2022/05/05 11:44:27;;;;;;;17.20;9.60;;;;;;;;;;5070727;28;20889;-83
2022/05/05 11:46:57;;;;;;;10.70;6.57;;;18.10;1.00;;;;;;5072729;28;20444;-84
2022/05/05 11:49:32;;;;;;;8.63;7.30;;;18.00;1.00;;;;;;5069413;28;20478;-83
2022/05/05 11:51:59;;;;;;;9.67;7.53;;;;;;;;;;5069895;28;20471;-83
2022/05/05 11:54:27;;;;;;;9.67;7.77;;;17.80;1.00;;;;;;5069789;28;20441;-84
2022/05/05 11:56:54;;;;;;;14.73;8.43;;;17.80;1.00;;;;;;5069053;28;20453;-84
2022/05/05 12:02:09;;;;;;;7.70;6.90;;;17.70;1.00;;;;;;5069488;28;20406;-84
2022/05/05 12:04:40;;;;;;;8.70;7.00;;;17.70;1.00;;;;;;5069741;28;20449;-84
2022/05/05 12:07:09;;;;;;;8.70;7.10;;;17.70;1.00;;;;;;5070002;28;20426;-84
2022/05/05 12:09:36;;;;;;;9.20;7.70;;;17.60;1.00;;;;;;5068836;28;20461;-84
2022/05/05 12:12:17;;;;;;;11.27;7.23;;;17.40;1.00;;;;;;5069113;28;20508;-84
2022/05/05 12:14:46;;;;;;;7.27;6.57;;;17.70;1.00;;;;;;5075553;28;20426;-83
2022/05/05 12:17:18;;;;;;;7.90;7.03;;;17.70;1.00;;;;;;5076640;28;20469;-84
2022/05/05 12:19:48;;;;;;;7.80;6.73;;;17.90;1.00;;;;;;5073361;28;20466;-84
2022/05/05 12:22:15;;;;;;;9.90;7.30;;;17.90;1.00;;;;;;5068455;28;20457;-82
2022/05/05 12:24:46;;;;;;;10.00;6.67;;;17.90;1.00;;;;;;5068493;28;20454;-84
2022/05/05 12:27:13;;;;;;;7.57;6.73;;;;;;;;;;5072115;28;20457;-84
2022/05/05 12:29:41;;;;;;;10.37;7.97;;;18.10;1.00;;;;;;5071308;28;20457;-83
2022/05/05 12:32:12;;;;;;;11.43;7.53;;;18.10;1.00;;;;;;5071416;28;20445;-83
2022/05/05 12:34:39;;;;;;;9.97;7.07;;;18.10;1.00;;;;;;5067929;28;20449;-84
2022/05/05 12:37:18;;;;;;;8.30;7.47;;;18.00;1.00;;;;;;5067590;28;20450;-84
2022/05/05 12:40:06;;;;;;;11.00;7.00;;;18.10;1.00;;;;;;5068393;28;20465;-84
2022/05/05 12:42:44;;;;;;;9.53;6.97;;;17.70;1.00;;;;;;5063201;28;20480;-83
2022/05/05 12:45:15;;;;;;;10.00;7.77;;;17.50;1.00;;;;;;5069805;28;20490;-85
2022/05/05 12:47:43;;;;;;;9.37;8.33;;;17.70;1.00;;;;;;5074436;28;20410;-84
2022/05/05 12:50:34;;;;;;;8.07;7.27;;;17.60;1.00;;;;;;5078216;28;20484;-83
2022/05/05 13:01:29;;;;;;;7.27;6.00;;;17.70;1.00;;;;;;5075165;28;20480;-83
2022/05/05 13:03:57;;;;;;;7.47;6.10;;;;;;;;;;5071667;28;20460;-84
2022/05/05 13:06:24;;;;;;;9.33;5.63;;;18.20;1.00;;;;;;5073706;28;20422;-84
2022/05/05 13:08:53;;;;;;;6.80;5.90;;;18.40;1.00;;;;;;5075487;28;20469;-83
2022/05/05 13:11:20;;;;;;;6.77;5.57;;;;;;;;;;5077083;28;20430;-83
2022/05/05 13:13:48;;;;;;;6.07;5.30;;;18.10;1.00;;;;;;5078208;28;20463;-83
2022/05/05 13:16:16;;;;;;;6.40;5.77;;;18.20;1.00;;;;;;5078636;28;20437;-83
2022/05/05 13:18:43;;;;;;;7.40;6.20;;;;;;;;;;5075398;28;20473;-83
2022/05/05 13:21:10;;;;;;;10.63;7.80;;;18.10;1.00;;;;;;5069158;28;20505;-84
2022/05/05 13:23:37;;;;;;;6.67;6.00;;;18.10;1.00;;;;;;5069493;28;20442;-83
2022/05/05 13:26:05;;;;;;;6.67;5.70;;;18.10;1.00;;;;;;5068129;28;20887;-83
2022/05/05 13:28:33;;;;;;;7.30;5.47;;;;;;;;;;5066740;28;20446;-83
2022/05/05 13:31:00;;;;;;;7.87;6.20;;;;;;;;;;5067003;28;20472;-83
2022/05/05 13:33:26;;;;;;;7.43;5.50;;;18.20;1.00;;;;;;5066130;28;20448;-84
2022/05/05 13:35:53;;;;;;;6.53;5.43;;;18.30;1.00;;;;;;5070220;28;20449;-83
2022/05/05 13:38:23;;;;;;;12.13;6.80;;;;;;;;;;5075930;28;20450;-83
2022/05/05 13:40:49;;;;;;;6.93;6.07;;;18.20;1.00;;;;;;5077189;28;20478;-83
2022/05/05 13:43:17;;;;;;;21.87;7.57;;;18.30;1.00;;;;;;5077192;28;20444;-82
2022/05/05 13:45:44;;;;;;;8.30;6.83;;;18.10;1.00;;;;;;5075819;28;20448;-83
2022/05/05 13:48:11;;;;;;;6.93;6.10;;;18.20;1.00;;;;;;5076393;28;20507;-83
2022/05/05 13:50:37;;;;;;;5.70;5.20;;;18.80;1.00;;;;;;5076747;28;20491;-83
2022/05/05 13:53:04;;;;;;;7.83;6.27;;;18.40;1.00;;;;;;5071063;28;20453;-83
2022/05/05 13:55:34;;;;;;;9.90;6.60;;;18.20;99.90;;;;;;5071212;28;20460;-83
2022/05/05 13:58:01;;;;;;;11.67;6.70;;;;;;;;;;5070680;28;20476;-83
2022/05/05 14:00:30;;;;;;;7.33;5.97;;;18.20;99.90;;;;;;5071112;28;20485;-84
2022/05/05 14:02:58;;;;;;;9.60;6.13;;;;;;;;;;5069764;28;20446;-84
2022/05/05 14:05:24;;;;;;;6.40;5.80;;;;;;;;;;5073156;28;20450;-84